Time;durP1;ratioP1;P1;durP2;ratioP2;P2;SDS_P1;SDS_P2;PMS_P1;PMS_P2;Temp;Humidity;BMP_temperature;BMP_pressure;BME280_temperature;BME280_humidity;BME280_pressure;Samples;Min_cycle;Max_cycle;Signal;HPM_P1;HPM_P2
2021/12/17 00:00:45;;;;;;;34.73;21.60;;;;;;;;;;5077240;28;20233;-81
2021/12/17 00:03:18;;;;;;;39.90;22.90;;;;;;;;;;5095516;28;20220;-81
2021/12/17 00:06:04;;;;;;;41.53;22.43;;;;;;;;;;5092949;28;20228;-81
2021/12/17 00:08:31;;;;;;;34.27;22.37;;;;;;;;;;5087784;28;20229;-81
2021/12/17 00:10:58;;;;;;;37.67;22.30;;;;;;;;;;5088518;28;20226;-81
2021/12/17 00:13:25;;;;;;;35.57;21.97;;;;;;;;;;5077134;28;20208;-81
2021/12/17 00:15:53;;;;;;;38.30;23.40;;;;;;;;;;5077524;28;20228;-81
2021/12/17 00:18:25;;;;;;;35.57;22.87;;;;;;;;;;5077769;28;20213;-81
2021/12/17 00:40:26;;;;;;;37.80;21.80;;;;;;;;;;5065145;28;20239;-82
2021/12/17 00:48:35;;;;;;;37.43;21.63;;;;;;;;;;5058850;28;20223;-81
2021/12/17 00:51:34;;;;;;;32.50;20.73;;;;;;;;;;5080997;28;20229;-82
2021/12/17 00:54:02;;;;;;;37.23;21.60;;;;;;;;;;5081865;28;20243;-83
2021/12/17 00:56:29;;;;;;;36.23;21.23;;;;;;;;;;5083248;28;20228;-81
2021/12/17 00:58:57;;;;;;;34.80;21.00;;;;;;;;;;5100354;28;20643;-81
2021/12/17 01:01:24;;;;;;;34.37;21.73;;;;;;;;;;5099579;28;20232;-81
2021/12/17 01:03:52;;;;;;;37.20;21.60;;;;;;;;;;5085386;28;20249;-82
2021/12/17 01:06:20;;;;;;;36.53;21.37;;;;;;;;;;5079400;28;20201;-81
2021/12/17 01:08:48;;;;;;;37.63;22.30;;;;;;;;;;5099634;28;20232;-81
2021/12/17 01:11:16;;;;;;;39.70;21.77;;;;;;;;;;5100072;28;20246;-81
2021/12/17 01:13:44;;;;;;;42.27;22.57;;;;;;;;;;5100610;28;20193;-81
2021/12/17 01:16:11;;;;;;;38.33;23.20;;;;;;;;;;5083767;28;20213;-82
2021/12/17 01:18:49;;;;;;;41.27;23.20;;;;;;;;;;5085634;28;20201;-82
2021/12/17 01:21:28;;;;;;;39.80;23.77;;;;;;;;;;5088336;28;20247;-81
2021/12/17 01:43:30;;;;;;;38.20;22.57;;;;;;;;;;5093812;28;20316;-80
2021/12/17 01:45:57;;;;;;;38.70;22.87;;;;;;;;;;5093964;28;20198;-80
2021/12/17 01:48:32;;;;;;;45.47;23.07;;;;;;;;;;5095228;28;20758;-80
2021/12/17 01:56:52;;;;;;;42.87;23.50;;;;;;;;;;5094769;28;20222;-80
2021/12/17 01:59:22;;;;;;;34.33;21.77;;;;;;;;;;5093463;28;20234;-80
2021/12/17 02:01:50;;;;;;;33.83;21.30;;;;;;;;;;5096549;28;20682;-80
2021/12/17 02:04:17;;;;;;;30.80;20.47;;;;;;;;;;5085056;28;20233;-80
2021/12/17 02:06:44;;;;;;;32.40;20.87;;;;;;;;;;5077853;28;20209;-81
2021/12/17 02:09:28;;;;;;;42.47;21.10;;;;;;;;;;5087215;28;20234;-81
2021/12/17 02:12:25;;;;;;;34.67;20.67;;;;;;;;;;5093791;28;20224;-81
2021/12/17 02:20:46;;;;;;;35.57;19.90;;;;;;;;;;5087018;28;20251;-81
2021/12/17 02:28:42;;;;;;;33.63;20.03;;;;;;;;;;5077909;28;20223;-80
2021/12/17 02:28:58;;;;;;;30.60;19.40;;;;;;;;;;5075548;28;20228;-81
2021/12/17 02:31:27;;;;;;;32.17;19.33;;;;;;;;;;5075458;28;20221;-81
2021/12/17 02:33:54;;;;;;;36.27;18.93;;;;;;;;;;5074579;28;20259;-81
2021/12/17 02:36:26;;;;;;;32.20;18.73;;;;;;;;;;5073780;28;20588;-81
2021/12/17 02:39:01;;;;;;;35.00;19.93;;;;;;;;;;5082349;28;20233;-81
2021/12/17 02:47:00;;;;;;;34.90;18.77;;;;;;;;;;5074135;28;20220;-81
2021/12/17 02:49:29;;;;;;;33.17;19.13;;;;;;;;;;5086848;28;20239;-81
2021/12/17 02:51:58;;;;;;;34.03;18.33;;;;;;;;;;5089610;28;20225;-81
2021/12/17 02:54:26;;;;;;;37.90;19.23;;;;;;;;;;5089882;28;20225;-81
2021/12/17 02:56:53;;;;;;;37.87;19.40;;;;;;;;;;5094272;28;20205;-81
2021/12/17 02:59:20;;;;;;;31.87;18.10;;;;;;;;;;5092956;28;20243;-81
2021/12/17 03:01:48;;;;;;;33.17;19.60;;;;;;;;;;5093696;28;20243;-81
2021/12/17 03:04:15;;;;;;;32.17;18.60;;;;;;;;;;5078056;23;20283;-79
2021/12/17 03:06:42;;;;;;;32.60;19.13;;;;;;;;;;5036984;28;20242;-77
2021/12/17 03:09:11;;;;;;;31.30;18.53;;;;;;;;;;5032078;28;20785;-76
2021/12/17 03:11:39;;;;;;;35.87;19.97;;;;;;;;;;5033237;28;20325;-78
2021/12/17 03:14:07;;;;;;;37.57;18.83;;;;;;;;;;5032321;28;20603;-78
2021/12/17 03:16:38;;;;;;;36.20;20.10;;;;;;;;;;5032481;28;20215;-79
2021/12/17 03:19:11;;;;;;;30.20;18.90;;;;;;;;;;5031984;28;20262;-78
2021/12/17 03:24:24;;;;;;;31.90;17.17;;;;;;;;;;5031922;28;20241;-78
2021/12/17 03:26:52;;;;;;;32.07;18.83;;;;;;;;;;5032969;28;20214;-79
2021/12/17 03:29:19;;;;;;;37.10;19.03;;;;;;;;;;5031590;28;20230;-79
2021/12/17 03:31:46;;;;;;;35.63;19.40;;;;;;;;;;5032419;28;20209;-78
2021/12/17 03:34:18;;;;;;;32.73;18.33;;;;;;;;;;5031901;28;20227;-81
2021/12/17 03:36:47;;;;;;;31.17;18.20;;;;;;;;;;5035286;28;20209;-79
2021/12/17 03:39:14;;;;;;;26.03;17.70;;;;;;;;;;5031022;28;20234;-78
2021/12/17 03:41:49;;;;;;;35.53;18.40;;;;;;;;;;5013143;28;20218;-78
2021/12/17 03:44:16;;;;;;;29.30;18.03;;;;;;;;;;5031399;28;20723;-79
2021/12/17 03:46:46;;;;;;;37.23;18.67;;;;;;;;;;5032421;28;20544;-78
2021/12/17 03:49:13;;;;;;;29.03;17.80;;;;;;;;;;5031627;28;20230;-79
2021/12/17 03:51:48;;;;;;;29.47;17.27;;;;;;;;;;5031841;28;20291;-78
2021/12/17 03:54:16;;;;;;;31.73;18.33;;;;;;;;;;5031193;28;20230;-79
2021/12/17 03:56:44;;;;;;;26.17;17.87;;;;;;;;;;5032117;28;20210;-78
2021/12/17 03:59:11;;;;;;;28.77;17.50;;;;;;;;;;5031428;28;20235;-79
2021/12/17 04:01:39;;;;;;;29.67;17.30;;;;;;;;;;5032115;28;20219;-78
2021/12/17 04:04:06;;;;;;;32.07;17.87;;;;;;;;;;5031189;28;20262;-78
2021/12/17 04:06:33;;;;;;;33.57;18.10;;;;;;;;;;5032331;28;20214;-79
2021/12/17 04:09:00;;;;;;;31.17;17.37;;;;;;;;;;5031300;28;20233;-79
2021/12/17 04:11:29;;;;;;;29.10;16.80;;;;;;;;;;5032350;28;20206;-78
2021/12/17 04:13:58;;;;;;;32.03;17.13;;;;;;;;;;5031271;28;20247;-78
2021/12/17 04:16:29;;;;;;;34.37;17.70;;;;;;;;;;5032068;28;20217;-78
2021/12/17 04:18:56;;;;;;;30.23;16.70;;;;;;;;;;5031402;28;20261;-80
2021/12/17 04:21:23;;;;;;;25.73;16.20;;;;;;;;;;5031872;28;20209;-78
2021/12/17 04:23:52;;;;;;;28.63;16.17;;;;;;;;;;5030716;28;20227;-79
2021/12/17 04:26:20;;;;;;;28.83;17.20;;;;;;;;;;5031305;28;20210;-77
2021/12/17 04:28:49;;;;;;;29.83;16.80;;;;;;;;;;5016156;28;20238;-79
2021/12/17 04:31:19;;;;;;;27.10;16.20;;;;;;;;;;5011622;28;20211;-78
2021/12/17 04:33:46;;;;;;;33.03;16.07;;;;;;;;;;5010556;28;20242;-78
2021/12/17 04:36:17;;;;;;;27.50;16.40;;;;;;;;;;5011905;28;20211;-79
2021/12/17 04:38:44;;;;;;;24.27;14.93;;;;;;;;;;5011859;28;20318;-79
2021/12/17 04:44:04;;;;;;;26.47;13.33;;;;;;;;;;5011438;28;20246;-78
2021/12/17 04:46:34;;;;;;;25.00;13.20;;;;;;;;;;5021163;28;20294;-78
2021/12/17 04:57:28;;;;;;;24.73;15.30;;;;;;;;;;5031305;28;20224;-78
2021/12/17 04:59:56;;;;;;;20.73;12.23;;;;;;;;;;5030862;28;20726;-78
2021/12/17 05:02:25;;;;;;;23.17;12.67;;;;;;;;;;5031859;28;20257;-79
2021/12/17 05:04:52;;;;;;;21.37;11.53;;;;;;;;;;5030585;28;20245;-78
2021/12/17 05:07:22;;;;;;;16.47;10.40;;;;;;;;;;5031483;28;20207;-78
2021/12/17 05:09:56;;;;;;;13.03;9.93;;;;;;;;;;5033437;28;20239;-78
2021/12/17 05:20:45;;;;;;;42.03;7.97;;;;;;;;;;5034275;28;20609;-77
2021/12/17 05:23:12;;;;;;;68.13;10.23;;;;;;;;;;5034427;28;20249;-76
2021/12/17 05:25:39;;;;;;;48.30;8.43;;;;;;;;;;5034040;28;20581;-77
2021/12/17 05:28:07;;;;;;;40.20;8.20;;;;;;;;;;5034535;28;20647;-77
2021/12/17 05:30:39;;;;;;;31.17;9.33;;;;;;;;;;5033979;28;20328;-77
2021/12/17 05:33:07;;;;;;;34.60;8.03;;;;;;;;;;5023856;28;20278;-78
2021/12/17 05:35:34;;;;;;;40.60;7.87;;;;;;;;;;5014164;28;20247;-78
2021/12/17 05:38:01;;;;;;;39.53;8.50;;;;;;;;;;5014251;28;20281;-77
2021/12/17 05:40:29;;;;;;;56.07;9.23;;;;;;;;;;5014043;28;20235;-77
2021/12/17 05:42:59;;;;;;;31.03;8.47;;;;;;;;;;5014684;28;20238;-76
2021/12/17 05:45:35;;;;;;;33.33;8.97;;;;;;;;;;5013896;28;20309;-77
2021/12/17 05:48:02;;;;;;;58.00;10.07;;;;;;;;;;5014337;28;20214;-77
2021/12/17 05:50:31;;;;;;;54.23;10.73;;;;;;;;;;5014132;28;20266;-77
2021/12/17 05:52:58;;;;;;;45.50;10.17;;;;;;;;;;5014260;28;20227;-77
2021/12/17 05:55:25;;;;;;;28.77;9.87;;;;;;;;;;5012783;28;20305;-77
2021/12/17 05:57:53;;;;;;;23.93;11.17;;;;;;;;;;5013499;28;20643;-77
2021/12/17 06:00:20;;;;;;;21.10;10.70;;;;;;;;;;5013843;28;20265;-77
2021/12/17 06:02:47;;;;;;;34.50;11.77;;;;;;;;;;5013830;28;20214;-77
2021/12/17 06:05:15;;;;;;;25.43;10.90;;;;;;;;;;5013483;28;20242;-77
2021/12/17 06:07:43;;;;;;;26.17;10.90;;;;;;;;;;5014297;28;20215;-77
2021/12/17 06:10:11;;;;;;;36.60;12.40;;;;;;;;;;5013412;28;20670;-76
2021/12/17 06:12:38;;;;;;;50.13;15.73;;;;;;;;;;5014107;28;20222;-76
2021/12/17 06:15:06;;;;;;;38.50;13.20;;;;;;;;;;5013276;28;20584;-77
2021/12/17 06:17:34;;;;;;;39.07;15.47;;;;;;;;;;5014061;28;20218;-76
2021/12/17 06:20:01;;;;;;;23.37;10.67;;;;;;;;;;5013458;28;20593;-75
2021/12/17 06:22:28;;;;;;;30.17;10.83;;;;;;;;;;5013535;28;20214;-76
2021/12/17 06:24:56;;;;;;;42.27;12.27;;;;;;;;;;5012920;28;20241;-75
2021/12/17 06:27:24;;;;;;;41.33;13.23;;;;;;;;;;5013907;28;20218;-75
2021/12/17 06:29:51;;;;;;;81.77;20.13;;;;;;;;;;5013226;28;20318;-75
2021/12/17 06:32:19;;;;;;;38.77;20.60;;;;;;;;;;5013153;28;20218;-76
2021/12/17 06:34:46;;;;;;;50.17;16.90;;;;;;;;;;5013099;28;20239;-77
2021/12/17 06:37:15;;;;;;;24.53;10.57;;;;;;;;;;5012519;28;20266;-76
2021/12/17 06:39:42;;;;;;;14.07;9.67;;;;;;;;;;5030828;28;20288;-77
2021/12/17 06:42:11;;;;;;;29.80;9.67;;;;;;;;;;5031953;28;20682;-76
2021/12/17 06:44:38;;;;;;;17.40;8.60;;;;;;;;;;5031971;28;20268;-77
2021/12/17 06:47:09;;;;;;;20.07;8.47;;;;;;;;;;5032411;28;20670;-76
2021/12/17 06:49:50;;;;;;;25.80;8.83;;;;;;;;;;5032472;28;20245;-78
2021/12/17 06:55:18;;;;;;;27.83;9.80;;;;;;;;;;5031927;28;20303;-75
2021/12/17 07:00:55;;;;;;;34.07;10.17;;;;;;;;;;5032001;28;20720;-76
2021/12/17 07:06:13;;;;;;;35.20;11.67;;;;;;;;;;5031696;28;20291;-76
2021/12/17 07:11:54;;;;;;;31.30;9.57;;;;;;;;;;5012093;28;20804;-76
2021/12/17 07:17:17;;;;;;;40.53;10.13;;;;;;;;;;5012182;28;20205;-77
2021/12/17 07:20:49;;;;;;;10.27;8.20;;;;;;;;;;5011958;28;20234;-76
2021/12/17 07:23:09;;;;;;;24.70;9.37;;;;;;;;;;5011591;28;20301;-76
2021/12/17 07:34:03;;;;;;;16.57;8.37;;;;;;;;;;5031377;28;20267;-76
2021/12/17 07:36:38;;;;;;;16.93;8.33;;;;;;;;;;5032081;28;20596;-76
2021/12/17 07:39:05;;;;;;;13.67;8.80;;;;;;;;;;5031528;28;20633;-76
2021/12/17 07:41:32;;;;;;;9.50;8.30;;;;;;;;;;5031850;28;20262;-78
2021/12/17 07:44:01;;;;;;;11.83;8.53;;;;;;;;;;5031402;28;20239;-76
2021/12/17 07:46:29;;;;;;;14.00;9.00;;;;;;;;;;5032118;28;20212;-77
2021/12/17 07:48:56;;;;;;;10.50;9.00;;;;;;;;;;5031242;28;20241;-77
2021/12/17 07:51:25;;;;;;;12.23;9.13;;;;;;;;;;5031575;28;20206;-77
2021/12/17 07:53:53;;;;;;;12.23;9.30;;;;;;;;;;5031054;28;20284;-77
2021/12/17 07:56:22;;;;;;;24.37;12.70;;;;;;;;;;5031670;28;20219;-77
2021/12/17 07:58:49;;;;;;;22.63;11.50;;;;;;;;;;5031262;28;20317;-76
2021/12/17 08:01:16;;;;;;;24.00;13.60;;;;;;;;;;5031584;28;20205;-76
2021/12/17 08:03:45;;;;;;;21.80;12.57;;;;;;;;;;5030946;28;20245;-77
2021/12/17 08:06:12;;;;;;;27.30;14.97;;;;;;;;;;5031570;28;20288;-76
2021/12/17 08:08:39;;;;;;;26.23;15.93;;;;;;;;;;5031286;28;20209;-78
2021/12/17 08:11:07;;;;;;;43.40;17.63;;;;;;;;;;5031535;28;20205;-77
2021/12/17 08:13:36;;;;;;;31.23;16.17;;;;;;;;;;5030931;28;20255;-77
2021/12/17 08:16:16;;;;;;;29.27;16.63;;;;;;;;;;5031379;28;20713;-77
2021/12/17 08:18:57;;;;;;;33.17;18.00;;;;;;;;;;5030983;28;20299;-78
2021/12/17 08:27:07;;;;;;;27.47;16.83;;;;;;;;;;5023943;28;20312;-77
2021/12/17 08:29:51;;;;;;;28.27;17.33;;;;;;;;;;5031022;28;20699;-76
2021/12/17 08:32:18;;;;;;;26.93;16.93;;;;;;;;;;5035483;28;20238;-76
2021/12/17 08:34:47;;;;;;;33.47;18.57;;;;;;;;;;5051074;28;20241;-79
2021/12/17 08:37:14;;;;;;;26.63;18.57;;;;;;;;;;5051370;28;20201;-76
2021/12/17 08:39:41;;;;;;;31.23;19.93;;;;;;;;;;5050870;28;20288;-77
2021/12/17 08:42:08;;;;;;;29.30;17.90;;;;;;;;;;5050798;28;20864;-76
2021/12/17 08:44:35;;;;;;;28.97;17.53;;;;;;;;;;5043982;28;20234;-78
2021/12/17 08:47:03;;;;;;;28.47;17.57;;;;;;;;;;5034898;28;20226;-77
2021/12/17 08:49:30;;;;;;;30.53;18.40;;;;;;;;;;5034666;28;20290;-74
2021/12/17 08:51:58;;;;;;;29.23;18.67;;;;;;;;;;5034272;28;20209;-74
2021/12/17 08:54:26;;;;;;;33.33;20.90;;;;;;;;;;5033642;28;20237;-74
2021/12/17 08:56:53;;;;;;;36.60;22.53;;;;;;;;;;5034319;28;20259;-75
2021/12/17 08:59:21;;;;;;;35.70;22.17;;;;;;;;;;5034198;28;20729;-76
2021/12/17 09:01:48;;;;;;;33.97;20.17;;;;;;;;;;5034086;28;20210;-75
2021/12/17 09:04:15;;;;;;;39.43;24.13;;;;;;;;;;5048441;23;20241;-80
2021/12/17 09:06:42;;;;;;;32.33;21.80;;;;;;;;;;5036442;28;20732;-80
2021/12/17 09:09:10;;;;;;;32.10;19.90;;;;;;;;;;5036502;28;20240;-80
2021/12/17 09:11:38;;;;;;;34.80;21.37;;;;;;;;;;5035799;28;20213;-80
2021/12/17 09:14:06;;;;;;;34.07;21.07;;;;;;;;;;5035436;28;20245;-80
2021/12/17 09:16:33;;;;;;;33.43;20.63;;;;;;;;;;5036554;28;20670;-81
2021/12/17 09:19:00;;;;;;;32.80;19.10;;;;;;;;;;5035681;28;20234;-80
2021/12/17 09:21:27;;;;;;;34.57;19.33;;;;;;;;;;5035609;28;20232;-80
2021/12/17 09:23:54;;;;;;;34.90;19.40;;;;;;;;;;5035632;28;20243;-80
2021/12/17 09:26:23;;;;;;;32.93;19.10;;;;;;;;;;5037549;28;20254;-83
2021/12/17 09:28:50;;;;;;;33.13;19.57;;;;;;;;;;5035766;28;20245;-81
2021/12/17 09:31:18;;;;;;;29.50;18.07;;;;;;;;;;5035488;28;20210;-81
2021/12/17 09:33:46;;;;;;;32.23;19.50;;;;;;;;;;5018791;28;20250;-81
2021/12/17 09:36:13;;;;;;;30.10;18.93;;;;;;;;;;5016657;28;20203;-81
2021/12/17 09:38:40;;;;;;;34.57;21.23;;;;;;;;;;5016812;28;20218;-81
2021/12/17 09:41:07;;;;;;;34.03;20.23;;;;;;;;;;5017107;28;20541;-81
2021/12/17 09:43:37;;;;;;;30.17;19.47;;;;;;;;;;5015007;28;20211;-82
2021/12/17 09:46:06;;;;;;;29.00;19.23;;;;;;;;;;5016387;28;20231;-81
2021/12/17 09:48:34;;;;;;;29.77;19.07;;;;;;;;;;5018819;28;20207;-82
2021/12/17 09:51:02;;;;;;;31.33;19.10;;;;;;;;;;5018619;28;20218;-81
2021/12/17 09:53:30;;;;;;;32.03;18.93;;;;;;;;;;5020284;28;20211;-81
2021/12/17 09:55:57;;;;;;;34.20;20.53;;;;;;;;;;5027152;28;20614;-81
2021/12/17 09:58:24;;;;;;;38.47;21.37;;;;;;;;;;5018727;28;20252;-81
2021/12/17 10:00:52;;;;;;;36.07;22.97;;;;;;;;;;5019596;28;20207;-81
2021/12/17 10:03:20;;;;;;;43.70;22.33;;;;;;;;;;5017989;28;20219;-81
2021/12/17 10:05:47;;;;;;;35.07;21.87;;;;;;;;;;5018265;28;20262;-81
2021/12/17 10:08:16;;;;;;;34.40;20.87;;;;;;;;;;5022000;28;20216;-81
2021/12/17 10:10:44;;;;;;;36.13;21.83;;;;;;;;;;5031466;28;20254;-81
2021/12/17 10:13:12;;;;;;;32.60;21.07;;;;;;;;;;5018893;28;20207;-81
2021/12/17 10:15:40;;;;;;;37.43;21.73;;;;;;;;;;5024241;28;20226;-81
2021/12/17 10:18:08;;;;;;;35.87;22.13;;;;;;;;;;5030105;28;20543;-81
2021/12/17 10:20:38;;;;;;;37.60;22.03;;;;;;;;;;5038236;28;20234;-81
2021/12/17 10:23:06;;;;;;;34.43;22.87;;;;;;;;;;5027235;28;20973;-81
2021/12/17 10:25:35;;;;;;;35.60;21.07;;;;;;;;;;5036865;28;20296;-81
2021/12/17 10:28:03;;;;;;;35.50;21.77;;;;;;;;;;5038773;28;20584;-81
2021/12/17 10:30:31;;;;;;;31.70;20.60;;;;;;;;;;5031348;28;20234;-81
2021/12/17 10:33:00;;;;;;;31.73;20.47;;;;;;;;;;5030865;28;20670;-81
2021/12/17 10:35:29;;;;;;;36.33;21.93;;;;;;;;;;5039263;28;20245;-81
2021/12/17 10:37:57;;;;;;;35.53;21.00;;;;;;;;;;5038929;28;20213;-81
2021/12/17 10:40:27;;;;;;;32.50;20.80;;;;;;;;;;5038893;28;20714;-82
2021/12/17 10:43:01;;;;;;;30.10;19.23;;;;;;;;;;5039003;28;20729;-81
2021/12/17 10:45:31;;;;;;;32.00;19.73;;;;;;;;;;5038438;28;20256;-81
2021/12/17 10:51:15;;;;;;;28.53;19.30;;;;;;;;;;5007454;28;20646;-81
2021/12/17 10:53:50;;;;;;;27.33;17.33;;;;;;;;;;5026702;28;20270;-81
2021/12/17 10:56:17;;;;;;;33.00;19.37;;;;;;;;;;5020372;28;20203;-80
2021/12/17 10:58:58;;;;;;;24.93;17.10;;;;;;;;;;5028242;28;20242;-81
2021/12/17 11:01:33;;;;;;;19.40;14.60;;;;;;;;;;5018623;28;20621;-81
2021/12/17 11:04:14;;;;;;;23.87;16.00;;;;;;;;;;5019252;28;20731;-81
2021/12/17 11:06:45;;;;;;;17.93;14.00;;;;;;;;;;5023765;28;20219;-81
2021/12/17 11:09:13;;;;;;;15.50;12.60;;;;;;;;;;5022490;28;20230;-80
2021/12/17 11:11:42;;;;;;;19.40;12.90;;;;;;;;;;5038058;28;20209;-81
2021/12/17 11:14:10;;;;;;;13.93;11.60;;;;;;;;;;5032720;28;20280;-81
2021/12/17 11:16:39;;;;;;;13.93;11.00;;;;;;;;;;5022936;28;20200;-80
2021/12/17 11:19:08;;;;;;;12.93;10.70;;;;;;;;;;5017740;28;20251;-80
2021/12/17 11:21:35;;;;;;;15.60;10.13;;;;;;;;;;5016837;28;20218;-83
2021/12/17 11:24:02;;;;;;;12.80;10.00;;;;;;;;;;5017394;28;20239;-84
2021/12/17 11:26:31;;;;;;;13.63;9.47;;;;;;;;;;5019907;28;20232;-83
2021/12/17 11:29:02;;;;;;;10.53;9.10;;;;;;;;;;5019371;28;20242;-83
2021/12/17 11:31:30;;;;;;;14.17;9.93;;;;;;;;;;5020111;28;20238;-83
2021/12/17 11:33:57;;;;;;;10.97;8.90;;;;;;;;;;5018956;28;20231;-83
2021/12/17 11:36:24;;;;;;;10.37;9.17;;;;;;;;;;5019793;28;20623;-83
2021/12/17 11:38:56;;;;;;;10.60;8.67;;;;;;;;;;5019244;28;20838;-83
2021/12/17 11:41:28;;;;;;;10.33;8.93;;;;;;;;;;5019345;28;20511;-81
2021/12/17 11:43:59;;;;;;;11.40;10.17;;;;;;;;;;5018419;28;20242;-81
2021/12/17 11:46:28;;;;;;;12.60;9.00;;;;;;;;;;5019263;28;20235;-81
2021/12/17 11:48:55;;;;;;;11.27;9.17;;;;;;;;;;5020006;28;20836;-81
2021/12/17 11:51:25;;;;;;;11.77;9.50;;;;;;;;;;5019519;28;20711;-81
2021/12/17 11:53:56;;;;;;;12.60;8.20;;;;;;;;;;5018888;28;20274;-81
2021/12/17 11:56:34;;;;;;;11.97;8.90;;;;;;;;;;5019220;28;20215;-81
2021/12/17 11:59:03;;;;;;;13.77;8.00;;;;;;;;;;5015329;28;20235;-81
2021/12/17 12:01:49;;;;;;;10.73;8.53;;;;;;;;;;5019700;28;20207;-81
2021/12/17 12:04:26;;;;;;;11.13;8.93;;;;;;;;;;5017234;28;20266;-82
2021/12/17 12:07:03;;;;;;;11.63;8.93;;;;;;;;;;5027364;28;20248;-81
2021/12/17 12:09:54;;;;;;;9.67;7.90;;;;;;;;;;5019096;28;20242;-81
2021/12/17 12:12:21;;;;;;;12.37;8.43;;;;;;;;;;5019241;28;20207;-81
2021/12/17 12:14:50;;;;;;;12.33;8.33;;;;;;;;;;5026302;28;20242;-81
2021/12/17 12:17:46;;;;;;;9.33;7.50;;;;;;;;;;5030031;28;20253;-81
2021/12/17 12:20:33;;;;;;;9.13;7.90;;;;;;;;;;5041096;28;20249;-81
2021/12/17 12:23:14;;;;;;;11.87;8.23;;;;;;;;;;5030067;28;20206;-81
2021/12/17 12:25:41;;;;;;;11.43;8.73;;;;;;;;;;5021950;28;20239;-81
2021/12/17 12:28:08;;;;;;;10.10;8.70;;;;;;;;;;5020581;28;20288;-83
2021/12/17 12:30:40;;;;;;;9.80;7.67;;;;;;;;;;5021794;28;20235;-83
2021/12/17 12:33:07;;;;;;;12.83;8.90;;;;;;;;;;5025336;28;20207;-82
2021/12/17 12:35:34;;;;;;;12.07;8.50;;;;;;;;;;5027990;28;20239;-82
2021/12/17 12:38:13;;;;;;;15.20;8.30;;;;;;;;;;5028040;28;20203;-83
2021/12/17 12:40:45;;;;;;;12.73;8.73;;;;;;;;;;5035244;28;20235;-82
2021/12/17 12:43:25;;;;;;;10.33;8.00;;;;;;;;;;5021966;28;20202;-83
2021/12/17 12:45:54;;;;;;;11.07;8.47;;;;;;;;;;5020222;28;20605;-82
2021/12/17 12:48:31;;;;;;;10.77;7.80;;;;;;;;;;5017366;28;20235;-82
2021/12/17 12:51:13;;;;;;;9.93;7.70;;;;;;;;;;5018126;28;20207;-83
2021/12/17 12:53:46;;;;;;;10.93;8.60;;;;;;;;;;5016963;28;20192;-82
2021/12/17 12:56:17;;;;;;;11.07;8.00;;;;;;;;;;5017681;28;20254;-83
2021/12/17 12:58:48;;;;;;;10.63;7.67;;;;;;;;;;5032193;28;20238;-83
2021/12/17 13:01:18;;;;;;;10.10;7.63;;;;;;;;;;5016103;28;20215;-83
2021/12/17 13:03:45;;;;;;;12.17;8.30;;;;;;;;;;5016017;28;20262;-83
2021/12/17 13:06:16;;;;;;;13.07;8.60;;;;;;;;;;5018975;28;20234;-82
2021/12/17 13:08:43;;;;;;;13.00;8.70;;;;;;;;;;5020148;28;20234;-82
2021/12/17 13:11:11;;;;;;;9.93;8.53;;;;;;;;;;5028451;28;20219;-82
2021/12/17 13:13:43;;;;;;;11.40;8.93;;;;;;;;;;5036483;28;20214;-82
2021/12/17 13:16:15;;;;;;;12.70;8.73;;;;;;;;;;5042759;28;20275;-82
2021/12/17 13:21:41;;;;;;;15.17;8.53;;;;;;;;;;5002467;28;20211;-82
2021/12/17 13:24:12;;;;;;;11.93;8.50;;;;;;;;;;5002149;28;20325;-83
2021/12/17 13:26:40;;;;;;;11.23;7.63;;;;;;;;;;5002850;28;20323;-82
2021/12/17 13:29:11;;;;;;;10.87;6.90;;;;;;;;;;5000846;28;20239;-82
2021/12/17 13:31:40;;;;;;;10.67;7.23;;;;;;;;;;5001660;28;20212;-82
2021/12/17 13:34:13;;;;;;;9.07;6.70;;;;;;;;;;5013526;28;20235;-82
2021/12/17 13:36:44;;;;;;;10.47;7.07;;;;;;;;;;5014851;28;20212;-83
2021/12/17 13:39:13;;;;;;;8.00;6.40;;;;;;;;;;5013795;28;20609;-82
2021/12/17 13:41:41;;;;;;;9.77;7.30;;;;;;;;;;5013947;28;20231;-82
2021/12/17 13:44:28;;;;;;;8.23;6.43;;;;;;;;;;5013100;28;20234;-82
2021/12/17 13:47:07;;;;;;;8.60;7.03;;;;;;;;;;5014420;28;20289;-83
2021/12/17 13:49:35;;;;;;;9.83;7.20;;;;;;;;;;5014437;28;20235;-83
2021/12/17 13:52:03;;;;;;;12.17;7.03;;;;;;;;;;5015232;28;20207;-82
2021/12/17 13:54:30;;;;;;;9.03;6.77;;;;;;;;;;5017296;28;20239;-83
2021/12/17 13:56:58;;;;;;;10.30;7.53;;;;;;;;;;5016999;28;20230;-83
2021/12/17 13:59:29;;;;;;;10.00;7.27;;;;;;;;;;5022147;28;20292;-83
2021/12/17 14:01:56;;;;;;;8.90;6.53;;;;;;;;;;5023692;28;20215;-82
2021/12/17 14:04:23;;;;;;;9.57;7.00;;;;;;;;;;5018723;28;20243;-82
2021/12/17 14:06:53;;;;;;;10.53;7.27;;;;;;;;;;5019715;28;20238;-82
2021/12/17 14:09:21;;;;;;;8.47;7.07;;;;;;;;;;5018707;28;20699;-83
2021/12/17 14:11:48;;;;;;;12.80;7.33;;;;;;;;;;5020656;28;20215;-82
2021/12/17 14:14:22;;;;;;;12.17;7.50;;;;;;;;;;5023491;28;20230;-82
2021/12/17 14:16:57;;;;;;;9.70;7.17;;;;;;;;;;5033132;28;20202;-82
2021/12/17 14:19:35;;;;;;;10.87;6.77;;;;;;;;;;5020831;28;20594;-82
2021/12/17 14:22:16;;;;;;;11.27;7.43;;;;;;;;;;5020579;28;20207;-83
2021/12/17 14:24:43;;;;;;;10.33;6.83;;;;;;;;;;5013102;28;20715;-83
2021/12/17 14:27:10;;;;;;;10.53;7.33;;;;;;;;;;5017637;28;20318;-83
2021/12/17 14:29:38;;;;;;;9.93;6.77;;;;;;;;;;5032577;28;20239;-82
2021/12/17 14:32:05;;;;;;;10.20;7.50;;;;;;;;;;5019824;28;20203;-82
2021/12/17 14:34:40;;;;;;;9.43;7.10;;;;;;;;;;5017271;28;20246;-83
2021/12/17 14:37:09;;;;;;;11.27;7.10;;;;;;;;;;5019441;28;20211;-82
2021/12/17 14:39:40;;;;;;;17.83;8.10;;;;;;;;;;5019326;28;20668;-83
2021/12/17 14:42:09;;;;;;;9.00;7.17;;;;;;;;;;5018714;28;20620;-83
2021/12/17 14:44:40;;;;;;;14.40;8.07;;;;;;;;;;5019495;28;20243;-82
2021/12/17 14:47:16;;;;;;;10.93;7.30;;;;;;;;;;5020393;28;20330;-83
2021/12/17 15:00:57;;;;;;;9.80;7.60;;;;;;;;;;5038875;28;20333;-83
2021/12/17 15:03:28;;;;;;;10.80;7.50;;;;;;;;;;5039087;28;20510;-83
2021/12/17 15:05:56;;;;;;;10.87;7.27;;;;;;;;;;5055809;23;20234;-77
2021/12/17 15:08:25;;;;;;;10.87;7.47;;;;;;;;;;5032341;28;20223;-77
2021/12/17 15:10:52;;;;;;;12.53;7.73;;;;;;;;;;5031977;28;20234;-77
2021/12/17 15:13:19;;;;;;;15.73;7.87;;;;;;;;;;5034234;28;20583;-77
2021/12/17 15:15:46;;;;;;;12.83;7.40;;;;;;;;;;5036964;28;20273;-78
2021/12/17 15:18:15;;;;;;;12.87;8.27;;;;;;;;;;5037404;28;20203;-78
2021/12/17 15:20:43;;;;;;;11.10;8.17;;;;;;;;;;5037662;28;20230;-78
2021/12/17 15:23:11;;;;;;;11.97;7.87;;;;;;;;;;5039467;28;20867;-79
2021/12/17 15:25:40;;;;;;;10.90;7.83;;;;;;;;;;5047807;28;20248;-77
2021/12/17 15:28:08;;;;;;;12.43;7.70;;;;;;;;;;5057754;28;20230;-80
2021/12/17 15:30:37;;;;;;;13.93;7.53;;;;;;;;;;5057253;28;20233;-79
2021/12/17 15:33:04;;;;;;;11.70;7.47;;;;;;;;;;5046210;28;20709;-78
2021/12/17 15:35:31;;;;;;;12.47;7.90;;;;;;;;;;5037232;28;20618;-79
2021/12/17 15:37:59;;;;;;;11.13;7.63;;;;;;;;;;5037993;28;20670;-79
2021/12/17 15:40:27;;;;;;;11.37;7.90;;;;;;;;;;5037419;28;20296;-79
2021/12/17 15:43:02;;;;;;;10.07;7.70;;;;;;;;;;5037844;28;20253;-79
2021/12/17 15:45:29;;;;;;;12.83;7.97;;;;;;;;;;5036168;28;20241;-77
2021/12/17 15:47:56;;;;;;;12.10;7.10;;;;;;;;;;5035978;28;20226;-78
2021/12/17 15:50:23;;;;;;;12.07;7.30;;;;;;;;;;5034991;28;20787;-77
2021/12/17 15:52:50;;;;;;;12.27;7.63;;;;;;;;;;5034603;28;20210;-77
2021/12/17 15:55:18;;;;;;;12.23;8.20;;;;;;;;;;5033292;28;20246;-77
2021/12/17 15:57:45;;;;;;;11.93;8.13;;;;;;;;;;5036642;28;20622;-77
2021/12/17 16:00:15;;;;;;;9.73;7.57;;;;;;;;;;5033293;28;20238;-77
2021/12/17 16:02:43;;;;;;;10.00;7.90;;;;;;;;;;5032247;28;20214;-76
2021/12/17 16:05:13;;;;;;;11.43;7.80;;;;;;;;;;5033224;28;20622;-77
2021/12/17 16:07:40;;;;;;;10.07;7.53;;;;;;;;;;5036826;28;20230;-79
2021/12/17 16:18:41;;;;;;;14.93;10.40;;;;;;;;;;5040138;28;20206;-80
2021/12/17 16:21:07;;;;;;;15.03;10.90;;;;;;;;;;5039269;28;20217;-80
2021/12/17 16:23:36;;;;;;;19.47;11.43;;;;;;;;;;5038606;28;20211;-81
2021/12/17 16:26:04;;;;;;;15.83;11.20;;;;;;;;;;5034576;28;20230;-82
2021/12/17 16:28:33;;;;;;;15.83;10.37;;;;;;;;;;5032644;28;20249;-82
2021/12/17 16:31:06;;;;;;;13.33;9.87;;;;;;;;;;5031880;28;20214;-81
2021/12/17 16:33:33;;;;;;;13.80;10.37;;;;;;;;;;5032352;28;20582;-81
2021/12/17 16:36:02;;;;;;;14.40;9.83;;;;;;;;;;5036200;28;20235;-79
2021/12/17 16:38:29;;;;;;;20.13;12.57;;;;;;;;;;5035372;28;20199;-81
2021/12/17 16:40:56;;;;;;;18.23;11.77;;;;;;;;;;5036669;28;20206;-80
2021/12/17 16:43:23;;;;;;;19.23;11.83;;;;;;;;;;5036477;28;20206;-80
2021/12/17 16:46:04;;;;;;;20.20;11.97;;;;;;;;;;5037736;28;20294;-80
2021/12/17 16:48:36;;;;;;;16.17;11.40;;;;;;;;;;5037713;28;20234;-81
2021/12/17 16:51:03;;;;;;;14.00;9.17;;;;;;;;;;5034660;28;20690;-82
2021/12/17 16:53:30;;;;;;;13.97;10.07;;;;;;;;;;5031192;28;20417;-81
2021/12/17 16:55:57;;;;;;;16.43;11.73;;;;;;;;;;5031169;28;20229;-82
2021/12/17 16:58:24;;;;;;;16.90;11.47;;;;;;;;;;5031536;28;20260;-82
2021/12/17 17:00:52;;;;;;;15.80;10.47;;;;;;;;;;5033954;28;20207;-81